Duane, Kentucky
Current Conditions -  °F | °C
As of 9:44 AM on Monday 26 Jan 2015 (Local Time) from KJKL Reporting Station
Light Snow Light Snow  
Wind Chill: 18°   Ceiling: 900
Heat Index: 27°   Visibility: 0.75mi
Dew Point: 24°   Wind: 9mph
Humidity: 89%   Direction: 280°W
Pressure: 29.79"   Gusts: 18mph
Location:  37.3318°N, 83.1697°W
Report Text: KJKL 261444Z AUTO 28008G16KT 3/4SM -SN BR BKN009 OVC013 M03/M04 A2979 RMK AO2 CIG 006V010 P0000 T10281044
Loading
Personal Weather Stations






























Interactive Weather Map New forecast layout! Learn more

10-Day Weather Forecast

Advertisements
Track Severe Weather on mobile